Airfield :
LOGIN :

Register | Disclaimer

   EN    FR    IT 

 










Legend :    VFR   Marginal VFR   IFR   Intensive IFR   Very Intensive IFR
Visi :
Ceiling :
>= 8 km
>= 3000ft
5 to 8 km
1000 to 3000 ft
1500m to 5 km
500 to 1000 ft
800 to 1500m
200 to 500 ft
< 800m
< 200 ft
Symbols :   Thunderstorms  Fog  Heavy snow  Heavy precipitations  Wind > 20 kt
SIGMETs :     Misc.  Thunderstorms  Icing  Turbulence  Mountain Waves  Volcanic Ashes






- Airport Elevation : 1071 ft
- IATA code : LWO


UKLL - L'viv

CURRENT METAR :
  • 041100Z 15006MPS 9999 OVC007 02/01 Q1011 R13/D TEMPO 13010G16MPS

EXPIRED METARs :
  • 041030Z 14006MPS 9999 OVC007 02/00 Q1011 R13/D TEMPO 13010G16MPS
  • 041000Z 15005MPS 9999 OVC007 01/00 Q1012 R13/CLRD// TEMPO 13010G16MPS
  • 040930Z 15007MPS 9000 OVC007 01/M00 Q1012 R13/CLRD// TEMPO 13010G16MPS
  • 040900Z 15005MPS 9000 OVC007 01/M00 Q1012 R13/CLRD// NOSIG
  • 040830Z 15007MPS 8000 OVC006 01/M00 Q1012 R13/CLRD// NOSIG

TAF AMD TAF UKLL
Valid from the 04 at 09:00 until the 05 at 06:00 UTC


040927Z 0409/0506 14005G11MPS 4000 BR SCT004 OVC007 TX03/0413Z TN01/0409Z
TEMPO 0409/0415 13010G16MPS
TEMPO 0415/0506 13009G14MPS 0400 FG VV001



MET'MAP, your aeronautical weather chart ! - Copyright ORBIFLY December 2007 - Disclaimer

ORBIFLY MET'MAP TEAM :

Programming & Development : Alexandra Zaïnal
Concept & original design : Baudouin d'Aumeries
Assistance for programming : Marc-Olivier Méhu
Technical & hardware support : Manuel Goepfert

Contact : metmap@orbifly.com




SOURCES & CREDITS :

   NOAA